createdAt,value
2018-02-09T00:01:30.321Z,-2.70
2018-02-09T00:03:32.993Z,-2.70
2018-02-09T00:05:35.654Z,-2.70
2018-02-09T00:07:38.301Z,-2.60
2018-02-09T00:09:41.090Z,-2.60
2018-02-09T00:11:43.744Z,-2.70
2018-02-09T00:13:46.442Z,-2.70
2018-02-09T00:15:49.296Z,-2.70
2018-02-09T00:17:51.978Z,-2.80
2018-02-09T00:19:54.670Z,-2.80
2018-02-09T00:21:57.336Z,-2.80
2018-02-09T00:23:59.999Z,-2.80
2018-02-09T00:26:02.694Z,-2.80
2018-02-09T00:28:05.340Z,-2.90
2018-02-09T00:30:08.013Z,-2.90
2018-02-09T00:32:10.685Z,-2.90
2018-02-09T00:34:14.103Z,-3.00
2018-02-09T00:36:16.775Z,-3.00
2018-02-09T00:38:19.468Z,-3.00
2018-02-09T00:40:22.209Z,-3.00
2018-02-09T00:42:25.634Z,-2.90
2018-02-09T00:44:28.304Z,-3.00
2018-02-09T00:46:30.962Z,-3.00
2018-02-09T00:48:33.840Z,-3.00
2018-02-09T00:50:36.529Z,-3.10
2018-02-09T00:52:39.194Z,-3.00
2018-02-09T00:54:41.857Z,-3.10
2018-02-09T00:56:45.312Z,-3.10
2018-02-09T00:58:47.966Z,-3.10
2018-02-09T01:00:50.668Z,-3.10
2018-02-09T01:02:53.331Z,-3.10
2018-02-09T01:04:56.007Z,-3.10
2018-02-09T01:06:58.686Z,-3.10
2018-02-09T01:09:01.377Z,-3.20
2018-02-09T01:11:04.067Z,-3.20
2018-02-09T01:13:06.747Z,-3.30
2018-02-09T01:15:09.396Z,-3.40
2018-02-09T01:17:12.055Z,-3.30
2018-02-09T01:19:14.842Z,-3.30
2018-02-09T01:21:17.511Z,-3.30
2018-02-09T01:23:20.171Z,-3.30
2018-02-09T01:25:22.862Z,-3.20
2018-02-09T01:27:25.526Z,-3.20
2018-02-09T01:29:28.170Z,-3.10
2018-02-09T01:31:31.628Z,-3.00
2018-02-09T01:33:34.375Z,-3.00
2018-02-09T01:35:37.114Z,-2.90
2018-02-09T01:37:39.799Z,-2.90
2018-02-09T01:39:43.206Z,-2.90
2018-02-09T01:41:45.852Z,-2.90
2018-02-09T01:43:48.537Z,-3.00
2018-02-09T01:45:51.979Z,-2.90
2018-02-09T01:47:54.724Z,-2.90
2018-02-09T01:50:10.094Z,-2.80
2018-02-09T01:52:13.511Z,-2.90
2018-02-09T01:54:16.180Z,-2.90
2018-02-09T01:56:18.853Z,-2.90
2018-02-09T01:58:21.504Z,-2.90
2018-02-09T02:00:24.963Z,-3.00
2018-02-09T02:02:27.610Z,-3.00
2018-02-09T02:04:30.303Z,-3.00
2018-02-09T02:06:33.720Z,-3.00
2018-02-09T02:08:36.381Z,-3.00
2018-02-09T02:10:39.067Z,-3.10
2018-02-09T02:12:41.737Z,-3.00
2018-02-09T02:14:44.407Z,-3.00
2018-02-09T02:16:47.080Z,-2.90
2018-02-09T02:18:49.740Z,-2.90
2018-02-09T02:20:52.513Z,-3.00
2018-02-09T02:22:55.324Z,-3.00
2018-02-09T02:24:57.980Z,-3.00
2018-02-09T02:27:00.629Z,-2.90
2018-02-09T02:29:03.448Z,-3.00
2018-02-09T02:31:06.114Z,-3.00
2018-02-09T02:33:08.781Z,-3.00
2018-02-09T02:35:11.446Z,-3.00
2018-02-09T02:37:14.115Z,-3.00
2018-02-09T02:39:16.804Z,-2.90
2018-02-09T02:41:19.479Z,-2.90
2018-02-09T02:43:22.139Z,-2.90
2018-02-09T02:45:24.838Z,-2.90
2018-02-09T02:47:27.563Z,-2.90
2018-02-09T02:49:30.223Z,-2.90
2018-02-09T02:51:32.900Z,-2.90
2018-02-09T02:53:35.566Z,-2.90
2018-02-09T02:55:38.243Z,-2.90
2018-02-09T02:57:40.931Z,-2.90
2018-02-09T02:59:43.568Z,-2.90
2018-02-09T03:01:46.266Z,-2.80
2018-02-09T03:03:48.936Z,-2.80
2018-02-09T03:05:51.604Z,-2.80
2018-02-09T03:07:54.263Z,-2.80
2018-02-09T03:09:57.076Z,-2.80
2018-02-09T03:11:59.781Z,-2.80
2018-02-09T03:14:02.413Z,-2.80
2018-02-09T03:16:05.103Z,-2.70
2018-02-09T03:18:07.752Z,-2.70
2018-02-09T03:20:10.401Z,-2.80
2018-02-09T03:22:13.848Z,-2.70
2018-02-09T03:24:16.538Z,-2.70
2018-02-09T03:26:19.206Z,-2.70
2018-02-09T03:28:21.879Z,-2.70
2018-02-09T03:30:24.572Z,-2.70
2018-02-09T03:32:27.245Z,-2.70
2018-02-09T03:34:29.963Z,-2.70
2018-02-09T03:36:32.608Z,-2.60
2018-02-09T03:38:35.271Z,-2.70
2018-02-09T03:40:37.962Z,-2.70
2018-02-09T03:42:40.605Z,-2.70
2018-02-09T03:47:49.134Z,-2.60
2018-02-09T03:49:51.991Z,-2.60
2018-02-09T03:51:54.656Z,-2.60
2018-02-09T03:53:57.328Z,-2.60
2018-02-09T03:56:00.018Z,-2.70
2018-02-09T03:58:02.682Z,-2.70
2018-02-09T04:00:05.373Z,-2.70
2018-02-09T04:02:08.024Z,-2.70
2018-02-09T04:04:11.451Z,-2.70
2018-02-09T04:06:14.138Z,-2.70
2018-02-09T04:08:16.898Z,-2.80
2018-02-09T04:10:19.562Z,-2.80
2018-02-09T04:12:22.243Z,-2.80
2018-02-09T04:14:24.914Z,-2.80
2018-02-09T04:16:27.571Z,-2.80
2018-02-09T04:18:31.098Z,-2.80
2018-02-09T04:20:33.772Z,-2.80
2018-02-09T04:22:36.498Z,-2.80
2018-02-09T04:24:39.172Z,-2.80
2018-02-09T04:26:41.846Z,-2.80
2018-02-09T04:28:44.506Z,-2.90
2018-02-09T04:30:47.288Z,-2.90
2018-02-09T04:32:49.932Z,-2.90
2018-02-09T04:34:52.576Z,-2.90
2018-02-09T04:36:56.012Z,-2.90
2018-02-09T04:38:58.691Z,-2.90
2018-02-09T04:41:01.386Z,-2.90
2018-02-09T04:43:04.082Z,-2.90
2018-02-09T04:45:06.762Z,-2.90
2018-02-09T04:47:09.404Z,-2.90
2018-02-09T04:49:12.101Z,-2.80
2018-02-09T04:51:14.746Z,-2.80
2018-02-09T04:53:17.401Z,-2.80
2018-02-09T04:55:20.098Z,-2.80
2018-02-09T04:57:22.739Z,-2.90
2018-02-09T04:59:26.157Z,-2.90
2018-02-09T05:01:28.855Z,-3.00
2018-02-09T05:03:31.496Z,-3.00
2018-02-09T05:05:34.150Z,-3.10
2018-02-09T05:07:37.600Z,-3.10
2018-02-09T05:09:41.074Z,-3.10
2018-02-09T05:11:43.728Z,-3.10
2018-02-09T05:13:47.173Z,-3.20
2018-02-09T05:15:50.615Z,-3.10
2018-02-09T05:17:54.046Z,-3.20
2018-02-09T05:19:56.723Z,-3.20
2018-02-09T05:21:59.399Z,-3.20
2018-02-09T05:24:02.075Z,-3.20
2018-02-09T05:26:04.790Z,-3.30
2018-02-09T05:28:07.538Z,-3.30
2018-02-09T05:30:10.221Z,-3.30
2018-02-09T05:32:12.913Z,-3.30
2018-02-09T05:34:15.566Z,-3.30
2018-02-09T05:36:18.248Z,-3.30
2018-02-09T05:38:20.926Z,-3.40
2018-02-09T05:40:23.610Z,-3.40
2018-02-09T05:42:26.454Z,-3.40
2018-02-09T05:44:29.118Z,-3.40
2018-02-09T05:46:31.791Z,-3.40
2018-02-09T05:48:34.458Z,-3.40
2018-02-09T05:50:37.894Z,-3.40
2018-02-09T05:52:40.576Z,-3.40
2018-02-09T05:54:43.327Z,-3.40
2018-02-09T05:56:45.982Z,-3.40
2018-02-09T05:58:48.708Z,-3.40
2018-02-09T06:00:51.378Z,-3.50
2018-02-09T06:02:54.025Z,-3.50
2018-02-09T06:04:56.700Z,-3.40
2018-02-09T06:06:59.370Z,-3.50
2018-02-09T06:09:02.099Z,-3.50
2018-02-09T06:11:04.821Z,-3.50
2018-02-09T06:13:07.485Z,-3.60
2018-02-09T06:15:10.915Z,-3.60
2018-02-09T06:17:13.588Z,-3.60
2018-02-09T06:19:16.236Z,-3.50
2018-02-09T06:21:19.713Z,-3.60
2018-02-09T06:23:23.127Z,-3.60
2018-02-09T06:25:26.589Z,-3.60
2018-02-09T06:27:29.269Z,-3.60
2018-02-09T06:29:31.926Z,-3.60
2018-02-09T06:31:34.570Z,-3.70
2018-02-09T06:33:37.277Z,-3.60
2018-02-09T06:35:39.941Z,-3.60
2018-02-09T06:37:42.592Z,-3.60
2018-02-09T06:39:45.424Z,-3.70
2018-02-09T06:41:48.085Z,-3.60
2018-02-09T06:43:50.754Z,-3.70
2018-02-09T06:45:53.459Z,-3.70
2018-02-09T06:47:57.261Z,-3.70
2018-02-09T06:50:00.041Z,-3.70
2018-02-09T06:52:02.730Z,-3.70
2018-02-09T06:54:06.856Z,-3.70
2018-02-09T06:56:09.519Z,-3.70
2018-02-09T06:58:12.971Z,-3.70
2018-02-09T07:00:15.614Z,-3.70
2018-02-09T07:02:18.256Z,-3.60
2018-02-09T07:04:21.788Z,-3.60
2018-02-09T07:06:24.455Z,-3.60
2018-02-09T07:08:27.155Z,-3.60
2018-02-09T07:10:29.888Z,-3.60
2018-02-09T07:12:33.302Z,-3.50
2018-02-09T07:14:37.142Z,-3.50
2018-02-09T07:16:40.034Z,-3.40
2018-02-09T07:18:42.722Z,-3.40
2018-02-09T07:20:45.360Z,-3.40
2018-02-09T07:22:48.048Z,-3.40
2018-02-09T07:24:50.714Z,-3.30
2018-02-09T07:26:53.610Z,-3.30
2018-02-09T07:28:56.295Z,-3.20
2018-02-09T07:30:58.948Z,-3.10
2018-02-09T07:33:01.595Z,-3.10
2018-02-09T07:35:04.291Z,-2.90
2018-02-09T07:37:06.967Z,-2.80
2018-02-09T07:39:09.628Z,-2.80
2018-02-09T07:41:12.293Z,-2.70
2018-02-09T07:43:15.777Z,-2.50
2018-02-09T07:45:18.439Z,-2.50
2018-02-09T07:47:21.096Z,-1.80
2018-02-09T07:49:23.792Z,-1.20
2018-02-09T07:51:26.466Z,-0.80
2018-02-09T07:53:29.115Z,-0.90
2018-02-09T07:55:31.765Z,-0.40
2018-02-09T07:57:34.492Z,0.00
2018-02-09T07:59:37.207Z,0.60
2018-02-09T08:01:39.844Z,0.30
2018-02-09T08:03:42.522Z,0.00
2018-02-09T08:05:45.162Z,0.00
2018-02-09T08:07:47.916Z,-0.20
2018-02-09T08:09:50.578Z,0.40
2018-02-09T08:11:54.297Z,1.50
2018-02-09T08:13:58.426Z,1.40
2018-02-09T08:16:01.914Z,3.50
2018-02-09T08:18:04.599Z,3.50
2018-02-09T08:20:07.272Z,3.30
2018-02-09T08:22:09.926Z,3.00
2018-02-09T08:24:12.701Z,4.50
2018-02-09T08:26:15.383Z,3.80
2018-02-09T08:28:18.039Z,3.30
2018-02-09T08:30:21.459Z,4.00
2018-02-09T08:32:24.396Z,3.90
2018-02-09T08:34:27.179Z,3.60
2018-02-09T08:36:30.605Z,4.70
2018-02-09T08:38:33.273Z,4.60
2018-02-09T08:40:36.014Z,4.80
2018-02-09T08:42:38.657Z,5.30
2018-02-09T08:44:41.458Z,4.10
2018-02-09T08:46:44.112Z,4.40
2018-02-09T08:48:46.774Z,3.20
2018-02-09T08:50:49.463Z,2.50
2018-02-09T08:52:52.108Z,2.80
2018-02-09T08:54:54.771Z,2.00
2018-02-09T08:56:58.214Z,3.30
2018-02-09T08:59:00.876Z,3.30
2018-02-09T09:01:03.618Z,2.70
2018-02-09T09:03:07.060Z,2.90
2018-02-09T09:05:09.732Z,2.90
2018-02-09T09:07:12.485Z,2.80
2018-02-09T09:09:16.088Z,2.00
2018-02-09T09:11:19.155Z,2.30
2018-02-09T09:13:22.021Z,2.50
2018-02-09T09:15:25.472Z,4.00
2018-02-09T09:17:28.136Z,3.90
2018-02-09T09:19:30.850Z,3.70
2018-02-09T09:21:33.533Z,3.20
2018-02-09T09:23:36.191Z,3.40
2018-02-09T09:25:38.884Z,3.10
2018-02-09T09:27:41.567Z,4.40
2018-02-09T09:29:44.220Z,3.90
2018-02-09T09:31:46.868Z,5.00
2018-02-09T09:33:49.543Z,5.30
2018-02-09T09:35:52.184Z,5.30
2018-02-09T09:37:55.612Z,5.90
2018-02-09T09:39:58.410Z,6.00
2018-02-09T09:42:01.053Z,5.60
2018-02-09T09:44:03.729Z,5.80
2018-02-09T09:46:06.385Z,6.00
2018-02-09T09:48:09.798Z,5.20
2018-02-09T09:50:16.807Z,5.10
2018-02-09T09:52:19.443Z,5.30
2018-02-09T09:54:22.081Z,5.10
2018-02-09T09:56:24.761Z,5.00
2018-02-09T09:58:27.567Z,5.30
2018-02-09T10:00:30.207Z,5.30
2018-02-09T10:02:39.767Z,5.80
2018-02-09T10:04:43.191Z,5.60
2018-02-09T10:06:45.853Z,5.60
2018-02-09T10:08:48.519Z,6.00
2018-02-09T10:10:51.936Z,7.10
2018-02-09T10:12:54.602Z,7.10
2018-02-09T10:14:57.272Z,7.20
2018-02-09T10:17:00.686Z,6.10
2018-02-09T10:19:03.335Z,6.10
2018-02-09T10:21:06.788Z,5.70
2018-02-09T10:23:09.560Z,5.70
2018-02-09T10:25:12.214Z,5.70
2018-02-09T10:27:14.876Z,5.80
2018-02-09T10:29:17.534Z,5.80
2018-02-09T10:31:20.962Z,4.30
2018-02-09T10:33:23.748Z,4.20
2018-02-09T10:35:26.397Z,3.80
2018-02-09T10:37:29.063Z,4.00
2018-02-09T10:39:32.501Z,3.60
2018-02-09T10:41:35.163Z,3.50
2018-02-09T10:43:37.941Z,3.70
2018-02-09T10:45:40.625Z,4.00
2018-02-09T10:47:43.317Z,3.70
2018-02-09T10:49:46.163Z,3.30
2018-02-09T10:51:48.826Z,3.40
2018-02-09T10:53:51.622Z,3.00
2018-02-09T10:55:54.419Z,3.10
2018-02-09T10:57:57.144Z,2.90
2018-02-09T11:00:00.574Z,2.80
2018-02-09T11:02:03.272Z,2.80
2018-02-09T11:04:05.923Z,3.00
2018-02-09T11:06:08.572Z,2.40
2018-02-09T11:08:11.274Z,2.50
2018-02-09T11:10:19.794Z,2.30
2018-02-09T11:12:22.459Z,2.50
2018-02-09T11:14:25.120Z,2.80
2018-02-09T11:16:28.532Z,2.40
2018-02-09T11:20:41.019Z,2.90
2018-02-09T11:22:43.748Z,3.00
2018-02-09T11:24:46.405Z,2.70
2018-02-09T11:26:49.096Z,2.60
2018-02-09T11:28:51.755Z,2.40
2018-02-09T11:30:55.531Z,2.20
2018-02-09T11:33:04.777Z,2.40
2018-02-09T11:35:07.566Z,2.40
2018-02-09T11:37:10.594Z,2.30
2018-02-09T11:39:13.260Z,2.40
2018-02-09T11:41:15.944Z,2.30
2018-02-09T11:43:18.862Z,2.60
2018-02-09T11:45:22.314Z,2.50
2018-02-09T11:47:25.188Z,2.50
2018-02-09T11:49:27.833Z,2.50
2018-02-09T11:51:30.534Z,2.50
2018-02-09T11:53:33.171Z,2.70
2018-02-09T11:55:35.808Z,2.40
2018-02-09T11:57:38.486Z,2.60
2018-02-09T11:59:41.246Z,2.70
2018-02-09T12:01:43.888Z,2.80
2018-02-09T12:03:46.570Z,2.90
2018-02-09T12:05:49.221Z,3.00
2018-02-09T12:07:52.725Z,2.70
2018-02-09T12:09:55.423Z,2.70
2018-02-09T12:11:58.082Z,2.70
2018-02-09T12:14:00.920Z,2.70
2018-02-09T12:16:03.995Z,2.70
2018-02-09T12:18:06.639Z,2.70
2018-02-09T12:20:09.314Z,2.70
2018-02-09T12:22:11.986Z,2.60
2018-02-09T12:24:14.645Z,2.50
2018-02-09T12:26:17.320Z,2.40
2018-02-09T12:28:21.017Z,2.40
2018-02-09T12:30:24.445Z,2.40
2018-02-09T12:32:27.135Z,2.40
2018-02-09T12:34:29.798Z,2.30
2018-02-09T12:36:32.437Z,2.50
2018-02-09T12:38:35.890Z,2.50
2018-02-09T12:40:38.607Z,2.50
2018-02-09T12:42:42.054Z,2.80
2018-02-09T12:44:44.697Z,2.70
2018-02-09T12:46:47.337Z,2.60
2018-02-09T12:48:50.019Z,2.60
2018-02-09T12:50:53.432Z,2.80
2018-02-09T12:52:56.209Z,2.80
2018-02-09T12:54:58.893Z,2.60
2018-02-09T12:57:01.544Z,2.60
2018-02-09T12:59:05.073Z,2.50
2018-02-09T13:01:07.749Z,2.50
2018-02-09T13:03:10.406Z,2.60
2018-02-09T13:05:13.094Z,2.70
2018-02-09T13:07:15.746Z,2.80
2018-02-09T13:09:19.237Z,3.10
2018-02-09T13:11:22.689Z,2.80
2018-02-09T13:13:25.357Z,2.80
2018-02-09T13:15:28.036Z,2.70
2018-02-09T13:17:30.776Z,2.50
2018-02-09T13:19:34.273Z,2.80
2018-02-09T13:21:36.954Z,2.80
2018-02-09T13:23:51.849Z,2.90
2018-02-09T13:25:54.488Z,3.00
2018-02-09T13:27:57.166Z,2.80
2018-02-09T13:29:59.822Z,2.80
2018-02-09T13:32:03.262Z,2.60
2018-02-09T13:34:05.971Z,2.60
2018-02-09T13:36:10.150Z,2.80
2018-02-09T13:38:12.810Z,2.80
2018-02-09T13:40:15.503Z,2.60
2018-02-09T13:42:18.167Z,2.70
2018-02-09T13:44:20.839Z,2.70
2018-02-09T13:46:23.503Z,2.50
2018-02-09T13:48:26.203Z,2.50
2018-02-09T13:50:28.891Z,2.50
2018-02-09T13:52:31.557Z,2.50
2018-02-09T13:54:34.323Z,2.50
2018-02-09T13:56:36.990Z,2.40
2018-02-09T13:58:39.646Z,2.50
2018-02-09T14:00:43.043Z,2.50
2018-02-09T14:02:46.495Z,2.50
2018-02-09T14:04:49.136Z,2.50
2018-02-09T14:06:51.771Z,2.60
2018-02-09T14:08:54.458Z,2.50
2018-02-09T14:10:57.869Z,2.50
2018-02-09T14:13:00.512Z,2.50
2018-02-09T14:15:03.192Z,2.50
2018-02-09T14:17:05.869Z,2.60
2018-02-09T14:19:09.327Z,2.60
2018-02-09T14:21:11.960Z,2.60
2018-02-09T14:23:15.372Z,2.70
2018-02-09T14:25:18.271Z,2.70
2018-02-09T14:27:20.922Z,2.70
2018-02-09T14:29:23.587Z,2.70
2018-02-09T14:31:26.301Z,2.70
2018-02-09T14:33:28.967Z,2.70
2018-02-09T14:35:31.630Z,2.70
2018-02-09T14:37:34.285Z,2.70
2018-02-09T14:39:37.710Z,2.50
2018-02-09T14:41:40.401Z,2.50
2018-02-09T14:43:43.056Z,2.40
2018-02-09T14:45:45.724Z,2.30
2018-02-09T14:47:48.407Z,2.30
2018-02-09T14:49:51.045Z,2.30
2018-02-09T14:51:53.707Z,2.40
2018-02-09T14:53:56.433Z,2.50
2018-02-09T14:55:59.069Z,2.40
2018-02-09T14:58:01.712Z,2.50
2018-02-09T15:00:04.505Z,2.50
2018-02-09T15:02:07.272Z,2.50
2018-02-09T15:04:09.908Z,2.50
2018-02-09T15:06:12.599Z,2.50
2018-02-09T15:08:16.312Z,2.40
2018-02-09T15:10:18.976Z,2.50
2018-02-09T15:12:21.649Z,2.40
2018-02-09T15:14:24.303Z,2.40
2018-02-09T15:16:27.725Z,2.30
2018-02-09T15:18:30.434Z,2.30
2018-02-09T15:20:33.162Z,2.30
2018-02-09T15:22:35.822Z,2.20
2018-02-09T15:24:38.510Z,2.10
2018-02-09T15:26:41.190Z,2.10
2018-02-09T15:28:43.837Z,2.20
2018-02-09T15:30:47.289Z,2.10
2018-02-09T15:32:49.952Z,2.10
2018-02-09T15:34:52.589Z,2.00
2018-02-09T15:36:56.315Z,2.00
2018-02-09T15:38:58.971Z,2.00
2018-02-09T15:41:02.390Z,2.00
2018-02-09T15:43:05.142Z,2.00
2018-02-09T15:45:08.561Z,1.90
2018-02-09T15:47:11.205Z,1.90
2018-02-09T15:49:14.654Z,1.90
2018-02-09T15:51:17.325Z,1.90
2018-02-09T15:53:19.980Z,1.90
2018-02-09T15:55:22.662Z,1.80
2018-02-09T15:57:25.329Z,1.80
2018-02-09T15:59:27.968Z,1.80
2018-02-09T16:01:31.401Z,1.80
2018-02-09T16:03:34.054Z,1.80
2018-02-09T16:05:36.696Z,1.70
2018-02-09T16:07:39.445Z,1.70
2018-02-09T16:09:42.112Z,1.70
2018-02-09T16:11:44.756Z,1.70
2018-02-09T16:13:48.319Z,1.70
2018-02-09T16:15:50.956Z,1.70
2018-02-09T16:17:53.650Z,1.70
2018-02-09T16:19:56.329Z,1.60
2018-02-09T16:21:58.987Z,1.60
2018-02-09T16:24:01.635Z,1.60
2018-02-09T16:26:04.308Z,1.60
2018-02-09T16:28:06.987Z,1.60
2018-02-09T16:30:09.816Z,1.50
2018-02-09T16:32:12.478Z,1.50
2018-02-09T16:34:15.118Z,1.50
2018-02-09T16:36:17.839Z,1.60
2018-02-09T16:38:20.495Z,1.50
2018-02-09T16:40:23.153Z,1.50
2018-02-09T16:42:25.850Z,1.50
2018-02-09T16:44:28.491Z,1.40
2018-02-09T16:46:33.038Z,1.40
2018-02-09T16:48:35.836Z,1.40
2018-02-09T16:50:38.487Z,1.40
2018-02-09T16:52:41.182Z,1.40
2018-02-09T16:54:43.902Z,1.40
2018-02-09T16:56:46.617Z,1.40
2018-02-09T16:58:49.274Z,1.30
2018-02-09T17:00:52.724Z,1.30
2018-02-09T17:02:55.409Z,1.30
2018-02-09T17:04:58.044Z,1.30
2018-02-09T17:07:00.717Z,1.30
2018-02-09T17:09:03.428Z,1.20
2018-02-09T17:11:06.119Z,1.20
2018-02-09T17:13:08.784Z,1.30
2018-02-09T17:15:11.447Z,1.30
2018-02-09T17:17:14.200Z,1.20
2018-02-09T17:19:16.884Z,1.30
2018-02-09T17:21:19.571Z,1.30
2018-02-09T17:23:22.417Z,1.20
2018-02-09T17:25:25.089Z,1.20
2018-02-09T17:27:28.507Z,1.20
2018-02-09T17:29:31.172Z,1.20
2018-02-09T17:31:33.934Z,1.20
2018-02-09T17:33:37.335Z,1.20
2018-02-09T17:35:40.000Z,1.20
2018-02-09T17:37:43.410Z,1.20
2018-02-09T17:39:46.062Z,1.20
2018-02-09T17:41:49.504Z,1.20
2018-02-09T17:43:52.143Z,1.20
2018-02-09T17:45:55.551Z,1.20
2018-02-09T17:47:58.221Z,1.20
2018-02-09T17:50:01.004Z,1.20
2018-02-09T17:52:03.673Z,1.20
2018-02-09T17:54:06.354Z,1.20
2018-02-09T17:56:10.240Z,1.20
2018-02-09T17:58:13.664Z,1.20
2018-02-09T18:00:16.577Z,1.20
2018-02-09T18:02:19.213Z,1.20
2018-02-09T18:04:21.897Z,1.20
2018-02-09T18:06:24.562Z,1.20
2018-02-09T18:08:27.223Z,1.20
2018-02-09T18:10:30.650Z,1.10
2018-02-09T18:12:33.585Z,1.10
2018-02-09T18:14:36.988Z,1.10
2018-02-09T18:16:40.583Z,1.10
2018-02-09T18:18:44.026Z,1.10
2018-02-09T18:20:46.673Z,1.10
2018-02-09T18:22:49.330Z,1.10
2018-02-09T18:24:52.784Z,1.10
2018-02-09T18:26:55.429Z,1.00
2018-02-09T18:28:58.087Z,1.10
2018-02-09T18:31:00.752Z,1.10
2018-02-09T18:33:04.269Z,1.00
2018-02-09T18:35:07.008Z,1.00
2018-02-09T18:37:09.681Z,1.10
2018-02-09T18:39:12.335Z,1.00
2018-02-09T18:41:14.990Z,1.00
2018-02-09T18:43:17.659Z,1.00
2018-02-09T18:45:20.379Z,1.00
2018-02-09T18:47:23.096Z,1.00
2018-02-09T18:49:25.808Z,1.00
2018-02-09T18:51:28.486Z,1.00
2018-02-09T18:53:32.694Z,1.00
2018-02-09T18:55:36.508Z,1.10
2018-02-09T18:57:39.156Z,1.00
2018-02-09T18:59:41.910Z,1.00
2018-02-09T19:01:45.355Z,1.10
2018-02-09T19:03:48.105Z,1.00
2018-02-09T19:05:50.784Z,1.10
2018-02-09T19:07:53.457Z,1.10
2018-02-09T19:09:57.365Z,1.10
2018-02-09T19:12:00.274Z,1.10
2018-02-09T19:14:02.954Z,1.10
2018-02-09T19:16:05.680Z,1.10
2018-02-09T19:18:08.356Z,1.10
2018-02-09T19:20:11.045Z,1.10
2018-02-09T19:22:13.721Z,1.10
2018-02-09T19:24:16.433Z,1.10
2018-02-09T19:26:19.066Z,1.10
2018-02-09T19:28:21.745Z,1.20
2018-02-09T19:30:25.013Z,1.20
2018-02-09T19:32:29.325Z,1.20
2018-02-09T19:34:34.669Z,1.20
2018-02-09T19:36:38.200Z,1.20
2018-02-09T19:38:40.855Z,1.20
2018-02-09T19:40:43.496Z,1.20
2018-02-09T19:42:46.185Z,1.20
2018-02-09T19:44:49.590Z,1.20
2018-02-09T19:46:52.993Z,1.20
2018-02-09T19:48:55.668Z,1.20
2018-02-09T19:50:58.320Z,1.20
2018-02-09T19:53:01.739Z,1.20
2018-02-09T19:55:04.427Z,1.20
2018-02-09T19:57:07.084Z,1.20
2018-02-09T19:59:10.503Z,1.20
2018-02-09T20:01:13.200Z,1.20
2018-02-09T20:03:15.844Z,1.20
2018-02-09T20:05:18.619Z,1.10
2018-02-09T20:07:21.296Z,1.10
2018-02-09T20:09:23.972Z,1.10
2018-02-09T20:11:26.626Z,1.20
2018-02-09T20:13:30.097Z,1.20
2018-02-09T20:15:32.741Z,1.20
2018-02-09T20:17:35.435Z,1.20
2018-02-09T20:19:38.163Z,1.20
2018-02-09T20:21:40.804Z,1.20
2018-02-09T20:23:43.488Z,1.20
2018-02-09T20:25:46.320Z,1.20
2018-02-09T20:27:48.965Z,1.20
2018-02-09T20:29:52.509Z,1.10
2018-02-09T20:31:55.189Z,1.20
2018-02-09T20:33:57.836Z,1.20
2018-02-09T20:36:00.630Z,1.10
2018-02-09T20:38:03.280Z,1.10
2018-02-09T20:40:06.067Z,1.20
2018-02-09T20:42:08.740Z,1.10
2018-02-09T20:44:11.625Z,1.20
2018-02-09T20:46:14.382Z,1.10
2018-02-09T20:48:17.180Z,1.10
2018-02-09T20:50:19.957Z,1.10
2018-02-09T20:52:22.738Z,1.10
2018-02-09T20:54:25.455Z,1.10
2018-02-09T20:56:28.106Z,1.10
2018-02-09T20:58:31.070Z,1.20
2018-02-09T21:00:33.790Z,1.20
2018-02-09T21:02:36.636Z,1.20
2018-02-09T21:04:39.306Z,1.20
2018-02-09T21:06:42.016Z,1.20
2018-02-09T21:08:44.881Z,1.20
2018-02-09T21:10:50.569Z,1.20
2018-02-09T21:12:53.255Z,1.20
2018-02-09T21:14:56.653Z,1.20
2018-02-09T21:17:00.063Z,1.20
2018-02-09T21:19:02.764Z,1.20
2018-02-09T21:21:05.450Z,1.20
2018-02-09T21:23:08.168Z,1.20
2018-02-09T21:25:11.625Z,1.20
2018-02-09T21:27:14.269Z,1.20
2018-02-09T21:29:17.006Z,1.20
2018-02-09T21:31:20.492Z,1.20
2018-02-09T21:33:23.920Z,1.20
2018-02-09T21:35:27.385Z,1.20
2018-02-09T21:37:30.024Z,1.20
2018-02-09T21:39:32.663Z,1.20
2018-02-09T21:41:36.286Z,1.20
2018-02-09T21:43:38.944Z,1.20
2018-02-09T21:45:41.619Z,1.20
2018-02-09T21:47:44.298Z,1.20
2018-02-09T21:49:46.942Z,1.20
2018-02-09T21:51:50.376Z,1.20
2018-02-09T21:53:53.289Z,1.20
2018-02-09T21:55:55.936Z,1.20
2018-02-09T21:57:58.618Z,1.20
2018-02-09T22:00:01.263Z,1.20
2018-02-09T22:02:04.700Z,1.20
2018-02-09T22:04:07.378Z,1.20
2018-02-09T22:06:10.028Z,1.20
2018-02-09T22:08:12.811Z,1.20
2018-02-09T22:10:15.541Z,1.20
2018-02-09T22:12:18.255Z,1.20
2018-02-09T22:14:21.167Z,1.20
2018-02-09T22:16:24.930Z,1.10
2018-02-09T22:18:28.703Z,1.10
2018-02-09T22:20:32.556Z,1.10
2018-02-09T22:22:35.243Z,1.20
2018-02-09T22:24:37.883Z,1.20
2018-02-09T22:26:41.322Z,1.20
2018-02-09T22:28:44.079Z,1.10
2018-02-09T22:30:46.768Z,1.10
2018-02-09T22:32:49.457Z,1.20
2018-02-09T22:34:52.115Z,1.20
2018-02-09T22:36:54.762Z,1.20
2018-02-09T22:38:58.277Z,1.20
2018-02-09T22:41:00.940Z,1.10
2018-02-09T22:43:03.608Z,1.20
2018-02-09T22:45:07.046Z,1.20
2018-02-09T22:47:09.824Z,1.20
2018-02-09T22:49:12.475Z,1.20
2018-02-09T22:51:15.125Z,1.20
2018-02-09T22:53:18.635Z,1.20
2018-02-09T22:55:21.334Z,1.20
2018-02-09T22:57:24.058Z,1.20
2018-02-09T22:59:26.726Z,1.20
2018-02-09T23:01:30.561Z,1.20
2018-02-09T23:03:33.987Z,1.20
2018-02-09T23:05:36.765Z,1.10
2018-02-09T23:07:39.428Z,1.10
2018-02-09T23:09:42.190Z,1.10
2018-02-09T23:11:45.605Z,1.10
2018-02-09T23:13:48.346Z,1.10
2018-02-09T23:15:51.815Z,1.10
2018-02-09T23:17:54.487Z,1.00
2018-02-09T23:19:57.151Z,1.10
2018-02-09T23:21:59.829Z,1.10
2018-02-09T23:24:02.482Z,1.10
2018-02-09T23:26:05.124Z,1.00
2018-02-09T23:28:08.564Z,1.00
2018-02-09T23:30:11.237Z,1.00
2018-02-09T23:32:13.879Z,1.00
2018-02-09T23:34:17.334Z,1.00
2018-02-09T23:36:20.022Z,1.00
2018-02-09T23:38:22.704Z,0.90
2018-02-09T23:40:25.344Z,0.90
2018-02-09T23:42:27.984Z,0.90
2018-02-09T23:44:31.809Z,0.90
2018-02-09T23:46:34.452Z,0.90
2018-02-09T23:48:37.856Z,0.90
2018-02-09T23:50:40.600Z,0.80
2018-02-09T23:52:43.291Z,0.80
2018-02-09T23:54:46.710Z,0.80
2018-02-09T23:56:49.393Z,0.80
2018-02-09T23:58:52.092Z,0.80
